createdAt,value
2023-01-09T00:02:24.000Z,10.13
2023-01-09T00:07:24.000Z,9.59
2023-01-09T00:12:24.000Z,8.83
2023-01-09T00:17:24.000Z,8.72
2023-01-09T00:22:25.000Z,7.13
2023-01-09T00:27:24.000Z,7.64
2023-01-09T00:32:25.000Z,7.2
2023-01-09T00:37:24.000Z,7.86
2023-01-09T00:42:24.000Z,6.86
2023-01-09T00:47:24.000Z,5.95
2023-01-09T00:52:24.000Z,5.89
2023-01-09T00:57:24.000Z,6.06
2023-01-09T01:02:24.000Z,5.98
2023-01-09T01:07:24.000Z,5.45
2023-01-09T01:12:25.000Z,6
2023-01-09T01:17:24.000Z,5.63
2023-01-09T01:22:24.000Z,5.94
2023-01-09T01:27:24.000Z,6.42
2023-01-09T01:32:24.000Z,6.13
2023-01-09T01:37:24.000Z,6
2023-01-09T01:42:25.000Z,6.01
2023-01-09T01:47:24.000Z,6.04
2023-01-09T01:52:24.000Z,6.16
2023-01-09T01:57:24.000Z,5.89
2023-01-09T02:02:24.000Z,5.85
2023-01-09T02:07:25.000Z,5.9
2023-01-09T02:12:24.000Z,5.87
2023-01-09T02:17:24.000Z,6
2023-01-09T02:22:25.000Z,5.86
2023-01-09T02:27:24.000Z,6.28
2023-01-09T02:37:24.000Z,6.05
2023-01-09T02:42:25.000Z,6.6
2023-01-09T02:47:24.000Z,6.51
2023-01-09T02:52:25.000Z,7.29
2023-01-09T02:57:24.000Z,7.16
2023-01-09T03:02:25.000Z,7.43
2023-01-09T03:07:25.000Z,7.06
2023-01-09T03:12:25.000Z,7.18
2023-01-09T03:17:24.000Z,6.88
2023-01-09T03:22:25.000Z,6.46
2023-01-09T03:27:24.000Z,6.55
2023-01-09T03:32:25.000Z,6.28
2023-01-09T03:37:24.000Z,6.01
2023-01-09T03:42:25.000Z,6.59
2023-01-09T03:47:24.000Z,6.43
2023-01-09T03:52:25.000Z,6.84
2023-01-09T03:57:24.000Z,7.09
2023-01-09T04:02:24.000Z,7.29
2023-01-09T04:07:25.000Z,7.33
2023-01-09T04:12:24.000Z,7.45
2023-01-09T04:17:24.000Z,7.5
2023-01-09T04:22:25.000Z,7.16
2023-01-09T04:27:24.000Z,7.19
2023-01-09T04:32:25.000Z,6.82
2023-01-09T04:37:24.000Z,6.56
2023-01-09T04:42:24.000Z,7.05
2023-01-09T04:47:24.000Z,6.57
2023-01-09T04:52:25.000Z,6.26
2023-01-09T04:57:24.000Z,6.74
2023-01-09T05:02:25.000Z,5.83
2023-01-09T05:07:24.000Z,5.79
2023-01-09T05:12:24.000Z,5.91
2023-01-09T05:17:25.000Z,6.01
2023-01-09T05:22:24.000Z,5.96
2023-01-09T05:27:24.000Z,5.86
2023-01-09T05:32:24.000Z,6.16
2023-01-09T05:37:24.000Z,5.68
2023-01-09T05:42:25.000Z,5.76
2023-01-09T05:47:24.000Z,5.83
2023-01-09T05:52:25.000Z,5.81
2023-01-09T05:57:24.000Z,6.36
2023-01-09T06:02:25.000Z,9
2023-01-09T06:07:24.000Z,7.57
2023-01-09T06:12:24.000Z,7.1
2023-01-09T06:17:24.000Z,8.26
2023-01-09T06:22:24.000Z,8.8
2023-01-09T06:27:24.000Z,9.12
2023-01-09T06:32:24.000Z,9.18
2023-01-09T06:37:25.000Z,8.04
2023-01-09T06:42:24.000Z,8.24
2023-01-09T06:47:25.000Z,9.45
2023-01-09T06:52:24.000Z,10.88
2023-01-09T06:57:24.000Z,8.74
2023-01-09T07:02:24.000Z,7.56
2023-01-09T07:07:24.000Z,7.48
2023-01-09T07:12:24.000Z,6.87
2023-01-09T07:17:25.000Z,6.52
2023-01-09T07:22:24.000Z,6.17
2023-01-09T07:27:25.000Z,4.87
2023-01-09T07:32:24.000Z,4.76
2023-01-09T07:37:25.000Z,4.69
2023-01-09T07:42:24.000Z,4.34
2023-01-09T07:47:25.000Z,4.99
2023-01-09T07:52:24.000Z,4.76
2023-01-09T07:57:25.000Z,5.46
2023-01-09T08:02:24.000Z,5.09
2023-01-09T08:07:25.000Z,5.68
2023-01-09T08:12:24.000Z,6.58
2023-01-09T08:17:24.000Z,5.7
2023-01-09T08:27:24.000Z,5.63
2023-01-09T08:32:24.000Z,5.26
2023-01-09T08:37:24.000Z,4.57
2023-01-09T08:47:25.000Z,4.64
2023-01-09T08:57:25.000Z,5.02
2023-01-09T09:02:24.000Z,4.28
2023-01-09T09:07:25.000Z,4.7
2023-01-09T09:12:24.000Z,5.39
2023-01-09T09:17:25.000Z,4.59
2023-01-09T09:22:24.000Z,5.01
2023-01-09T09:27:24.000Z,4.64
2023-01-09T09:32:25.000Z,4.85
2023-01-09T09:37:24.000Z,4.85
2023-01-09T09:42:24.000Z,5
2023-01-09T09:47:25.000Z,5.21
2023-01-09T09:52:24.000Z,5.21
2023-01-09T09:57:25.000Z,5.54
2023-01-09T10:02:24.000Z,5.15
2023-01-09T10:07:24.000Z,5.29
2023-01-09T10:12:24.000Z,5.51
2023-01-09T10:17:24.000Z,5.54
2023-01-09T10:22:25.000Z,5.19
2023-01-09T10:27:24.000Z,5.02
2023-01-09T10:32:24.000Z,5.23
2023-01-09T10:37:24.000Z,5.75
2023-01-09T10:42:24.000Z,6.14
2023-01-09T10:47:24.000Z,5.12
2023-01-09T10:52:24.000Z,5.13
2023-01-09T10:57:25.000Z,5.56
2023-01-09T11:02:24.000Z,5.61
2023-01-09T11:07:24.000Z,5.05
2023-01-09T11:12:25.000Z,4.78
2023-01-09T11:17:24.000Z,6.29
2023-01-09T11:22:25.000Z,5.48
2023-01-09T11:27:24.000Z,5.23
2023-01-09T11:32:25.000Z,5.22
2023-01-09T11:37:24.000Z,4.86
2023-01-09T11:42:24.000Z,4.56
2023-01-09T11:47:24.000Z,4.36
2023-01-09T11:52:24.000Z,4.75
2023-01-09T11:57:24.000Z,4.81
2023-01-09T12:02:25.000Z,4.89
2023-01-09T12:07:24.000Z,5.11
2023-01-09T12:12:24.000Z,5.11
2023-01-09T12:17:25.000Z,5.69
2023-01-09T12:22:24.000Z,5.69
2023-01-09T12:27:25.000Z,5.22
2023-01-09T12:32:25.000Z,5.48
2023-01-09T12:37:24.000Z,5.78
2023-01-09T12:47:24.000Z,6.44
2023-01-09T12:52:24.000Z,6.65
2023-01-09T12:57:24.000Z,6.32
2023-01-09T13:02:24.000Z,6.19
2023-01-09T13:07:24.000Z,5.68
2023-01-09T13:12:25.000Z,5.67
2023-01-09T13:17:24.000Z,5.94
2023-01-09T13:22:24.000Z,6.92
2023-01-09T13:27:25.000Z,7.12
2023-01-09T13:32:25.000Z,7.46
2023-01-09T13:37:25.000Z,7.71
2023-01-09T13:42:24.000Z,7.73
2023-01-09T13:47:25.000Z,7.31
2023-01-09T13:52:24.000Z,7.09
2023-01-09T13:57:25.000Z,7.04
2023-01-09T14:02:24.000Z,6.59
2023-01-09T14:07:24.000Z,6.47
2023-01-09T14:12:24.000Z,6.57
2023-01-09T14:17:24.000Z,6.21
2023-01-09T14:22:25.000Z,5.33
2023-01-09T14:27:24.000Z,5.82
2023-01-09T14:32:24.000Z,5.37
2023-01-09T14:37:24.000Z,5.49
2023-01-09T14:42:25.000Z,5.38
2023-01-09T14:47:24.000Z,5.49
2023-01-09T14:52:24.000Z,4.83
2023-01-09T14:57:24.000Z,6.12
2023-01-09T15:02:24.000Z,6.42
2023-01-09T15:07:25.000Z,5.61
2023-01-09T15:12:24.000Z,5.01
2023-01-09T15:17:24.000Z,4.85
2023-01-09T15:22:25.000Z,4.09
2023-01-09T15:27:24.000Z,4.34
2023-01-09T15:32:24.000Z,4.54
2023-01-09T15:37:24.000Z,4.49
2023-01-09T15:42:24.000Z,4.28
2023-01-09T15:47:25.000Z,4.4
2023-01-09T15:52:24.000Z,3.81
2023-01-09T15:57:25.000Z,4.38
2023-01-09T16:02:25.000Z,4.03
2023-01-09T16:07:24.000Z,4.35
2023-01-09T16:12:24.000Z,3.52
2023-01-09T16:17:24.000Z,3.29
2023-01-09T16:27:24.000Z,4.32
2023-01-09T16:32:24.000Z,3.45
2023-01-09T16:37:25.000Z,3.76
2023-01-09T16:42:24.000Z,4.05
2023-01-09T16:47:24.000Z,3.5
2023-01-09T16:52:24.000Z,3.74
2023-01-09T16:57:25.000Z,3.76
2023-01-09T17:02:24.000Z,3.9
2023-01-09T17:07:24.000Z,3.84
2023-01-09T17:12:24.000Z,3.87
2023-01-09T17:17:25.000Z,3.57
2023-01-09T17:22:24.000Z,3.87
2023-01-09T17:27:24.000Z,3.18
2023-01-09T17:32:25.000Z,3.42
2023-01-09T17:37:24.000Z,3.6
2023-01-09T17:42:24.000Z,3.86
2023-01-09T17:47:25.000Z,4.2
2023-01-09T17:52:24.000Z,3.8
2023-01-09T17:57:24.000Z,3.75
2023-01-09T18:02:24.000Z,3.77
2023-01-09T18:07:25.000Z,4.19
2023-01-09T18:12:25.000Z,3.73
2023-01-09T18:17:24.000Z,4.3
2023-01-09T18:22:24.000Z,4.76
2023-01-09T18:27:25.000Z,4.16
2023-01-09T18:32:24.000Z,4.66
2023-01-09T18:37:24.000Z,4.43
2023-01-09T18:42:25.000Z,4.41
2023-01-09T18:47:24.000Z,3.95
2023-01-09T18:52:24.000Z,3.87
2023-01-09T19:02:24.000Z,4.28
2023-01-09T19:07:24.000Z,3.75
2023-01-09T19:12:24.000Z,4.22
2023-01-09T19:17:24.000Z,3.51
2023-01-09T19:22:24.000Z,3.74
2023-01-09T19:27:25.000Z,4.12
2023-01-09T19:32:24.000Z,4.26
2023-01-09T19:37:25.000Z,3.75
2023-01-09T19:42:24.000Z,4.24
2023-01-09T19:47:24.000Z,3.61
2023-01-09T19:52:24.000Z,4.15
2023-01-09T19:57:24.000Z,3.73
2023-01-09T20:02:25.000Z,3.69
2023-01-09T20:07:24.000Z,3.99
2023-01-09T20:12:24.000Z,4.05
2023-01-09T20:17:24.000Z,3.67
2023-01-09T20:22:24.000Z,4.17
2023-01-09T20:27:24.000Z,4.71
2023-01-09T20:32:24.000Z,3.95
2023-01-09T20:37:25.000Z,3.85
2023-01-09T20:42:24.000Z,3.44
2023-01-09T20:47:24.000Z,3.03
2023-01-09T20:52:24.000Z,4.1
2023-01-09T20:57:25.000Z,3.62
2023-01-09T21:02:25.000Z,3.65
2023-01-09T21:07:24.000Z,3.76
2023-01-09T21:12:24.000Z,4.28
2023-01-09T21:17:25.000Z,3.36
2023-01-09T21:22:25.000Z,3.91
2023-01-09T21:27:24.000Z,3.45
2023-01-09T21:32:25.000Z,3.6
2023-01-09T21:37:24.000Z,3.48
2023-01-09T21:42:24.000Z,4.09
2023-01-09T21:47:25.000Z,3.29
2023-01-09T21:52:24.000Z,3.79
2023-01-09T21:57:24.000Z,3.38
2023-01-09T22:02:24.000Z,3.82
2023-01-09T22:07:25.000Z,4.04
2023-01-09T22:12:24.000Z,4.59
2023-01-09T22:17:25.000Z,4.67
2023-01-09T22:22:24.000Z,4.7
2023-01-09T22:27:25.000Z,4.57
2023-01-09T22:32:24.000Z,3.44
2023-01-09T22:37:24.000Z,3.68
2023-01-09T22:42:24.000Z,3.51
2023-01-09T22:47:24.000Z,4.05
2023-01-09T22:52:24.000Z,3.64
2023-01-09T22:57:25.000Z,3.93
2023-01-09T23:02:24.000Z,4.02
2023-01-09T23:07:24.000Z,3.92
2023-01-09T23:12:24.000Z,4.47
2023-01-09T23:17:24.000Z,4.68
2023-01-09T23:22:24.000Z,3.86
2023-01-09T23:27:24.000Z,4.08
2023-01-09T23:32:24.000Z,4.16
2023-01-09T23:37:24.000Z,4.81
2023-01-09T23:42:24.000Z,4.64
2023-01-09T23:47:24.000Z,4.32
2023-01-09T23:52:24.000Z,4.16
2023-01-09T23:57:24.000Z,4.34
